Time;durP1;ratioP1;P1;durP2;ratioP2;P2;SDS_P1;SDS_P2;PMS_P1;PMS_P2;Temp;Humidity;BMP_temperature;BMP_pressure;BME280_temperature;BME280_humidity;BME280_pressure;Samples;Min_cycle;Max_cycle;Signal;HPM_P1;HPM_P2
2021/09/14 00:03:36;;;;;;;8.80;7.70;;;;;;;14.86;79.95;100773.11;226999;1209;141035;-73
2021/09/14 00:08:38;;;;;;;9.50;8.50;;;;;;;14.91;79.94;100774.40;227071;1202;138066;-74
2021/09/14 00:13:40;;;;;;;10.50;9.50;;;;;;;14.84;79.84;100774.49;226896;1209;139833;-75
2021/09/14 00:18:41;;;;;;;9.60;8.50;;;;;;;14.84;79.79;100774.88;227709;1202;139085;-74
2021/09/14 00:23:43;;;;;;;10.00;9.00;;;;;;;14.92;79.51;100773.16;227124;1209;139431;-73
2021/09/14 00:28:44;;;;;;;9.00;8.10;;;;;;;15.00;78.83;100777.09;227508;1203;138640;-74
2021/09/14 00:33:46;;;;;;;9.30;8.00;;;;;;;14.96;78.97;100774.84;226957;1209;139064;-75
2021/09/14 00:38:48;;;;;;;10.00;8.40;;;;;;;14.92;79.25;100778.23;226892;1209;138705;-75
2021/09/14 00:43:57;;;;;;;8.90;7.60;;;;;;;14.87;79.53;100775.03;227313;1202;139532;-74
2021/09/14 00:48:59;;;;;;;10.20;7.40;;;;;;;14.89;79.36;100777.16;227600;1209;139453;-74
2021/09/14 00:54:01;;;;;;;11.20;7.70;;;;;;;14.89;79.88;100778.25;226939;1209;139364;-74
2021/09/14 00:59:03;;;;;;;9.30;7.60;;;;;;;14.92;79.83;100781.59;226932;1209;139642;-74
2021/09/14 01:04:05;;;;;;;9.50;8.40;;;;;;;14.88;79.72;100781.67;227001;1209;138613;-73
2021/09/14 01:09:07;;;;;;;8.40;7.60;;;;;;;14.73;80.48;100783.75;226784;1209;138686;-74
2021/09/14 01:14:10;;;;;;;9.60;8.30;;;;;;;14.70;80.75;100783.70;226980;1203;139122;-72
2021/09/14 01:19:12;;;;;;;11.50;7.20;;;;;;;14.73;80.93;100790.73;227218;1203;138858;-73
2021/09/14 01:24:14;;;;;;;8.80;7.40;;;;;;;14.83;80.54;100786.35;226850;1202;139038;-73
2021/09/14 01:30:12;;;;;;;8.30;7.10;;;;;;;14.86;80.23;100785.80;226880;1209;139227;-72
2021/09/14 01:34:37;;;;;;;10.80;7.90;;;;;;;14.78;80.51;100787.09;227676;1202;138489;-74
2021/09/14 01:39:39;;;;;;;11.50;8.10;;;;;;;14.73;81.10;100788.91;227650;1209;139258;-73
2021/09/14 01:44:40;;;;;;;11.40;7.40;;;;;;;14.80;81.26;100788.17;226913;1204;140222;-73
2021/09/14 01:49:42;;;;;;;11.00;8.80;;;;;;;14.80;81.42;100785.09;226999;1209;139184;-73
2021/09/14 01:54:43;;;;;;;8.60;7.70;;;;;;;14.74;81.47;100783.52;227032;1206;138830;-74
2021/09/14 01:59:45;;;;;;;9.40;7.40;;;;;;;14.69;81.98;100787.95;227039;1211;139202;-73
2021/09/14 02:05:10;;;;;;;9.80;7.20;;;;;;;14.77;81.52;100777.98;226783;1210;138603;-73
2021/09/14 03:03:32;;;;;;;9.40;7.70;;;;;;;14.63;82.16;100778.09;227841;1206;138938;-75
2021/09/14 03:08:38;;;;;;;8.50;7.50;;;;;;;14.69;82.19;100778.02;226987;1202;138925;-73
2021/09/14 03:13:41;;;;;;;8.20;7.40;;;;;;;14.66;82.63;100785.59;227576;1209;138530;-73
2021/09/14 03:18:43;;;;;;;8.20;7.20;;;;;;;14.73;82.27;100784.13;227015;1209;138420;-72
2021/09/14 03:23:45;;;;;;;9.40;8.20;;;;;;;14.76;82.15;100789.05;226938;1209;138064;-74
2021/09/14 03:28:47;;;;;;;9.30;8.00;;;;;;;14.65;82.85;100788.20;226931;1202;138761;-74
2021/09/14 03:33:49;;;;;;;9.60;7.30;;;;;;;14.63;83.22;100784.15;227105;1209;138910;-73
2021/09/14 03:38:50;;;;;;;8.70;7.90;;;;;;;14.66;83.34;100789.50;227147;1204;139197;-74
2021/09/14 03:43:52;;;;;;;8.20;7.40;;;;;;;14.70;83.36;100785.02;227324;1209;139859;-74
2021/09/14 03:48:54;;;;;;;9.00;8.00;;;;;;;14.74;83.03;100787.95;227913;1204;138741;-74
2021/09/14 03:53:55;;;;;;;8.30;7.50;;;;;;;14.64;83.35;100791.61;227313;1209;138174;-73
2021/09/14 03:58:57;;;;;;;9.40;8.40;;;;;;;14.62;83.89;100796.15;228002;1209;139153;-72
2021/09/14 04:04:07;;;;;;;8.00;7.20;;;;;;;14.66;83.85;100802.63;228974;1204;139422;-73
2021/09/14 04:09:10;;;;;;;10.30;8.10;;;;;;;14.69;83.88;100803.38;227931;1202;138599;-74
2021/09/14 04:14:11;;;;;;;8.20;7.40;;;;;;;14.67;83.90;100806.81;228013;1209;139925;-74
2021/09/14 04:19:13;;;;;;;11.40;7.70;;;;;;;14.71;83.88;100811.33;227394;1203;139582;-71
2021/09/14 04:24:15;;;;;;;8.30;7.20;;;;;;;14.73;84.09;100814.85;228005;1203;139619;-74
2021/09/14 04:29:16;;;;;;;10.40;8.30;;;;;;;14.82;83.76;100818.05;227458;1203;139356;-74
2021/09/14 04:34:18;;;;;;;9.50;6.90;;;;;;;14.75;83.91;100823.95;226896;1209;139015;-73
2021/09/14 04:39:20;;;;;;;8.70;7.80;;;;;;;14.67;84.16;100828.63;226753;1203;138345;-73
2021/09/14 04:44:22;;;;;;;9.20;7.00;;;;;;;14.66;83.86;100828.66;226808;1203;138510;-73
2021/09/14 04:49:24;;;;;;;7.60;6.60;;;;;;;14.62;84.28;100825.78;226840;1209;139981;-74
2021/09/14 04:54:25;;;;;;;8.10;6.90;;;;;;;14.64;84.69;100830.57;226986;1209;139740;-74
2021/09/14 04:59:27;;;;;;;8.90;8.00;;;;;;;14.73;84.28;100831.70;227713;1203;138342;-73
2021/09/14 05:04:29;;;;;;;10.40;8.00;;;;;;;14.67;84.33;100829.33;227478;1209;139312;-75
2021/09/14 05:09:31;;;;;;;10.10;8.10;;;;;;;14.68;84.62;100829.70;226826;1209;139704;-75
2021/09/14 05:14:33;;;;;;;8.90;7.30;;;;;;;14.70;84.51;100835.36;227495;1204;140056;-71
2021/09/14 05:19:37;;;;;;;9.10;7.40;;;;;;;14.75;84.42;100834.10;226937;1209;139855;-72
2021/09/14 05:24:39;;;;;;;8.60;7.80;;;;;;;14.81;84.08;100843.31;228033;1202;138412;-72
2021/09/14 05:29:40;;;;;;;8.60;7.20;;;;;;;14.88;83.67;100845.09;227661;1210;138569;-75
2021/09/14 05:34:42;;;;;;;11.10;7.90;;;;;;;14.85;84.02;100844.49;227207;1209;138997;-75
2021/09/14 05:39:45;;;;;;;9.80;8.40;;;;;;;14.85;84.32;100852.02;227504;1209;139611;-74
2021/09/14 05:44:46;;;;;;;10.80;7.80;;;;;;;14.94;83.98;100852.59;227437;1204;139218;-75
2021/09/14 05:49:48;;;;;;;9.80;8.40;;;;;;;14.98;83.94;100850.02;227095;1204;139294;-74
2021/09/14 05:54:50;;;;;;;9.60;7.90;;;;;;;15.08;83.15;100849.76;226803;1209;138505;-74
2021/09/14 05:59:51;;;;;;;9.70;7.00;;;;;;;15.11;83.49;100851.71;227485;1209;139185;-74
2021/09/14 06:04:53;;;;;;;13.10;8.80;;;;;;;15.13;83.78;100849.50;227321;1204;139663;-74
2021/09/14 06:09:55;;;;;;;15.30;10.10;;;;;;;15.17;83.95;100853.25;227077;1209;138862;-73
2021/09/14 06:14:56;;;;;;;11.50;9.50;;;;;;;15.29;83.58;100856.84;227178;1203;139111;-74
2021/09/14 06:19:58;;;;;;;14.50;9.00;;;;;;;15.34;83.46;100862.61;226730;1209;138308;-74
2021/09/14 06:25:00;;;;;;;10.20;7.40;;;;;;;15.37;83.38;100863.73;226784;1204;139164;-75
2021/09/14 06:30:02;;;;;;;13.10;7.00;;;;;;;15.34;82.17;100869.00;227405;1204;139264;-73
2021/09/14 06:35:05;;;;;;;8.60;7.70;;;;;;;15.42;81.66;100872.20;227467;1201;139164;-74
2021/09/14 06:40:06;;;;;;;9.10;6.70;;;;;;;15.46;81.89;100867.31;227100;1210;139779;-73
2021/09/14 06:45:10;;;;;;;11.40;7.00;;;;;;;15.51;81.68;100865.50;226862;1201;139241;-75
2021/09/14 06:50:11;;;;;;;11.40;7.10;;;;;;;15.54;81.64;100865.44;226973;1209;139466;-73
2021/09/14 06:55:13;;;;;;;11.50;9.10;;;;;;;15.58;81.36;100866.00;227215;1209;139063;-74
2021/09/14 07:00:15;;;;;;;9.20;8.00;;;;;;;15.62;81.48;100863.55;226885;1209;138301;-73
2021/09/14 07:05:18;;;;;;;9.20;8.10;;;;;;;15.59;81.62;100863.04;227569;1201;138431;-71
2021/09/14 07:10:20;;;;;;;9.50;6.80;;;;;;;15.54;82.25;100867.52;226804;1209;138898;-73
2021/09/14 07:15:22;;;;;;;13.00;7.60;;;;;;;15.53;82.70;100870.13;227786;1202;139265;-73
2021/09/14 07:20:25;;;;;;;7.50;6.60;;;;;;;15.52;82.79;100874.15;228892;1204;138977;-74
2021/09/14 07:25:28;;;;;;;12.30;7.00;;;;;;;15.59;82.60;100877.73;226819;1209;138724;-73
2021/09/14 07:30:30;;;;;;;10.00;6.60;;;;;;;15.75;81.58;100877.08;226919;1210;138542;-74
2021/09/14 07:35:32;;;;;;;5.70;4.20;;;;;;;15.77;81.22;100880.77;227425;1209;140494;-74
2021/09/14 07:40:34;;;;;;;7.70;4.20;;;;;;;15.83;79.96;100880.86;227362;1202;139134;-74
2021/09/14 07:45:36;;;;;;;6.50;4.90;;;;;;;15.86;79.25;100878.23;227368;1201;139066;-74
2021/09/14 07:50:37;;;;;;;5.80;4.10;;;;;;;15.98;78.64;100875.52;227108;1209;138850;-75
2021/09/14 07:55:39;;;;;;;5.00;3.50;;;;;;;16.00;78.71;100876.33;227119;1210;138468;-75
2021/09/14 08:00:41;;;;;;;3.90;2.70;;;;;;;16.12;78.24;100878.89;227251;1205;139473;-74
2021/09/14 08:05:42;;;;;;;3.10;2.80;;;;;;;16.32;77.46;100877.97;227020;1209;138877;-75
2021/09/14 08:10:44;;;;;;;3.10;2.70;;;;;;;16.44;76.61;100880.94;227139;1210;138584;-74
2021/09/14 08:15:46;;;;;;;6.90;3.10;;;;;;;16.53;76.07;100880.13;227813;1202;138795;-75
2021/09/14 08:20:47;;;;;;;2.20;2.00;;;;;;;16.57;76.19;100884.02;227287;1207;139384;-76
2021/09/14 08:25:49;;;;;;;1.90;1.40;;;;;;;16.70;73.49;100877.21;227824;1204;138949;-73
2021/09/14 08:30:50;;;;;;;4.40;1.80;;;;;;;16.76;71.94;100875.44;227841;1210;138548;-74
2021/09/14 08:35:52;;;;;;;5.10;2.60;;;;;;;16.88;72.06;100875.13;227453;1202;138252;-77
2021/09/14 08:40:55;;;;;;;5.00;2.40;;;;;;;17.01;72.21;100873.73;227798;1201;138422;-72
2021/09/14 08:45:57;;;;;;;2.30;1.90;;;;;;;17.13;71.77;100876.17;226898;1203;139676;-74
2021/09/14 08:50:58;;;;;;;2.20;1.50;;;;;;;17.19;71.73;100879.58;227079;1209;138892;-74
2021/09/14 08:56:01;;;;;;;5.70;1.50;;;;;;;17.11;71.45;100889.05;226940;1209;138147;-74
2021/09/14 09:01:14;;;;;;;3.10;1.70;;;;;;;17.06;71.10;100894.48;227080;1210;138249;-73
2021/09/14 09:06:15;;;;;;;2.00;1.80;;;;;;;17.14;71.35;100900.63;226991;1210;139195;-73
2021/09/14 09:11:17;;;;;;;5.60;3.30;;;;;;;17.32;71.10;100893.48;227016;1209;139130;-72
2021/09/14 09:16:18;;;;;;;3.30;2.20;;;;;;;17.49;70.53;100894.12;227011;1202;138812;-73
2021/09/14 09:21:40;;;;;;;3.90;2.80;;;;;;;17.56;69.46;100892.69;227477;1209;138325;-73
2021/09/14 09:26:43;;;;;;;3.90;1.90;;;;;;;17.74;69.49;100895.97;226892;1206;138266;-72
2021/09/14 09:31:47;;;;;;;4.60;2.40;;;;;;;17.88;69.22;100897.05;227126;1201;139631;-73
2021/09/14 09:36:50;;;;;;;2.00;1.70;;;;;;;18.00;68.73;100902.23;226935;1207;139360;-74
2021/09/14 09:41:53;;;;;;;3.30;1.90;;;;;;;17.90;69.29;100898.23;227484;1202;138875;-76
2021/09/14 09:46:57;;;;;;;3.50;1.70;;;;;;;17.71;69.92;100894.60;227385;1202;138267;-74
2021/09/14 09:51:59;;;;;;;6.60;3.80;;;;;;;17.89;69.96;100892.48;227659;1210;138204;-74
2021/09/14 09:57:01;;;;;;;4.40;3.40;;;;;;;18.23;68.89;100889.67;227810;1202;139698;-72
2021/09/14 10:02:13;;;;;;;2.30;1.90;;;;;;;18.42;67.65;100888.58;227299;1202;138541;-76
2021/09/14 10:07:16;;;;;;;3.40;2.50;;;;;;;18.20;66.26;100888.27;227823;1202;138890;-75
2021/09/14 10:12:30;;;;;;;2.30;2.10;;;;;;;18.06;65.69;100886.83;228030;1206;138879;-79
2021/09/14 10:17:45;;;;;;;10.40;9.50;;;;;;;17.96;66.20;100889.69;227768;1201;139322;-75
2021/09/14 10:23:15;;;;;;;3.50;2.50;;;;;;;18.02;66.46;100887.56;227881;1206;139447;-73
2021/09/14 10:28:19;;;;;;;2.60;1.80;;;;;;;18.30;64.30;100886.61;227553;1205;138983;-79
2021/09/14 10:33:23;;;;;;;2.40;1.90;;;;;;;18.53;63.36;100880.65;227702;1205;138512;-76
2021/09/14 10:38:25;;;;;;;1.50;1.30;;;;;;;18.84;63.78;100877.70;227728;1201;138147;-74
2021/09/14 10:43:32;;;;;;;2.10;1.40;;;;;;;19.24;60.09;100882.81;227779;1201;139440;-76
2021/09/14 10:48:45;;;;;;;2.60;2.10;;;;;;;19.56;57.28;100876.30;228229;1202;138202;-79
2021/09/14 10:54:00;;;;;;;2.60;2.40;;;;;;;19.62;57.76;100878.42;227806;1201;138160;-76
2021/09/14 10:59:02;;;;;;;2.00;1.60;;;;;;;19.18;60.24;100880.64;227769;1201;138512;-74
2021/09/14 11:04:05;;;;;;;3.10;1.50;;;;;;;19.16;60.98;100878.14;227918;1202;138542;-74
2021/09/14 11:09:07;;;;;;;2.00;1.80;;;;;;;20.00;59.70;100879.95;227742;1201;138525;-75
2021/09/14 11:14:09;;;;;;;2.00;1.40;;;;;;;19.79;59.20;100880.11;227802;1202;138806;-75
2021/09/14 11:19:10;;;;;;;1.60;1.50;;;;;;;19.31;60.62;100878.29;227856;1202;138792;-76
2021/09/14 11:24:12;;;;;;;2.20;2.00;;;;;;;19.05;62.48;100872.03;227903;1201;139132;-75
2021/09/14 11:29:14;;;;;;;2.30;2.10;;;;;;;18.77;65.89;100874.29;227774;1210;139267;-74
2021/09/14 11:34:20;;;;;;;2.30;2.10;;;;;;;18.73;65.64;100869.64;227357;1204;140360;-78
2021/09/14 11:39:22;;;;;;;2.50;2.30;;;;;;;18.81;66.14;100866.52;227684;1202;139363;-74
2021/09/14 11:44:26;;;;;;;2.50;2.30;;;;;;;18.73;66.14;100868.55;227650;1201;138840;-71
2021/09/14 11:49:28;;;;;;;2.90;2.70;;;;;;;18.71;66.58;100863.52;227658;1202;138451;-74
2021/09/14 11:54:37;;;;;;;3.40;3.10;;;;;;;18.70;66.78;100863.95;227889;1202;138248;-75
2021/09/14 11:59:38;;;;;;;4.70;2.70;;;;;;;18.64;66.80;100864.74;227814;1202;138780;-75
2021/09/14 12:04:40;;;;;;;2.90;2.30;;;;;;;18.75;67.24;100869.56;226958;1210;138181;-75
2021/09/14 12:09:43;;;;;;;4.80;4.30;;;;;;;18.87;66.66;100864.83;227091;1202;139866;-75
2021/09/14 12:14:45;;;;;;;4.60;3.10;;;;;;;19.06;66.36;100864.91;227015;1205;139695;-75
2021/09/14 12:19:50;;;;;;;7.20;3.20;;;;;;;19.09;64.71;100866.00;228305;1210;139887;-75
2021/09/14 12:24:52;;;;;;;3.10;2.80;;;;;;;19.08;63.23;100861.66;228225;1210;139054;-76
2021/09/14 12:29:54;;;;;;;3.60;2.30;;;;;;;19.03;61.87;100860.80;227851;1201;138609;-77
2021/09/14 12:34:56;;;;;;;3.10;2.30;;;;;;;19.05;63.04;100862.15;227943;1202;138383;-76
2021/09/14 12:39:57;;;;;;;2.40;2.10;;;;;;;18.93;63.02;100856.21;227853;1202;139283;-73
2021/09/14 12:44:59;;;;;;;2.30;2.10;;;;;;;18.87;62.75;100851.67;227862;1202;138875;-76
2021/09/14 12:50:01;;;;;;;4.60;2.30;;;;;;;18.88;59.63;100848.67;227824;1209;138698;-74
2021/09/14 12:55:03;;;;;;;2.60;2.40;;;;;;;18.88;60.25;100844.06;227804;1202;138929;-76
2021/09/14 13:00:06;;;;;;;2.40;2.20;;;;;;;18.93;60.25;100841.96;227114;1202;138224;-75
2021/09/14 13:05:09;;;;;;;2.10;1.80;;;;;;;18.95;61.49;100843.91;227705;1210;138644;-74
2021/09/14 13:10:13;;;;;;;2.50;2.30;;;;;;;18.92;62.08;100844.63;227754;1202;138351;-71
2021/09/14 13:20:36;;;;;;;2.50;2.30;;;;;;;19.28;60.24;100844.95;227275;1201;138916;-76
2021/09/14 13:25:38;;;;;;;3.40;2.50;;;;;;;19.59;60.43;100842.31;227907;1201;139037;-78
2021/09/14 13:30:39;;;;;;;3.80;2.70;;;;;;;19.28;62.00;100839.39;227913;1202;138769;-74
2021/09/14 13:35:41;;;;;;;3.50;3.00;;;;;;;19.13;63.06;100836.38;227603;1210;138439;-74
2021/09/14 13:40:46;;;;;;;3.10;2.80;;;;;;;18.97;61.78;100838.79;227809;1209;138432;-75
2021/09/14 13:51:13;;;;;;;4.40;3.10;;;;;;;18.91;63.00;100837.58;227098;1202;125613;-72
2021/09/14 13:56:27;;;;;;;3.80;3.40;;;;;;;18.99;61.70;100836.79;227877;1201;138889;-75
2021/09/14 14:01:29;;;;;;;3.90;3.20;;;;;;;19.07;60.74;100833.91;227749;1202;138148;-75
2021/09/14 14:06:31;;;;;;;3.40;3.10;;;;;;;19.04;62.48;100833.20;227788;1201;138736;-72
2021/09/14 14:11:32;;;;;;;3.40;2.70;;;;;;;19.00;63.28;100838.95;228975;1209;138233;-75
2021/09/14 14:16:35;;;;;;;3.00;2.80;;;;;;;18.97;64.03;100836.46;227950;1202;138600;-76
2021/09/14 14:21:37;;;;;;;3.70;3.00;;;;;;;18.93;65.16;100835.07;227038;1202;138952;-73
2021/09/14 14:26:38;;;;;;;3.90;3.60;;;;;;;18.88;65.65;100836.73;227157;1209;139298;-75
2021/09/14 14:31:40;;;;;;;3.50;3.20;;;;;;;18.88;65.79;100837.27;227212;1203;139579;-73
2021/09/14 14:36:42;;;;;;;4.50;4.10;;;;;;;19.01;65.94;100836.35;227471;1201;139217;-76
2021/09/14 14:41:44;;;;;;;4.70;4.30;;;;;;;19.09;66.27;100831.00;227293;1203;138823;-74
2021/09/14 14:46:45;;;;;;;5.40;4.90;;;;;;;19.10;65.86;100836.39;227804;1202;139044;-74
2021/09/14 14:51:47;;;;;;;5.00;4.60;;;;;;;19.09;65.60;100833.80;227157;1202;139008;-72
2021/09/14 14:56:48;;;;;;;5.20;4.80;;;;;;;19.09;65.80;100833.97;227785;1201;138472;-73
2021/09/14 15:01:50;;;;;;;6.10;5.50;;;;;;;19.05;63.12;100839.34;226927;1207;138677;-74
2021/09/14 15:06:52;;;;;;;5.70;5.30;;;;;;;19.09;60.50;100834.66;227692;1201;138523;-74
2021/09/14 15:11:53;;;;;;;5.90;5.40;;;;;;;19.16;60.61;100836.48;227100;1209;138623;-74
2021/09/14 15:16:55;;;;;;;5.80;5.20;;;;;;;19.23;60.55;100835.45;227823;1202;138777;-75
2021/09/14 15:21:57;;;;;;;5.50;5.00;;;;;;;19.23;59.77;100835.80;226949;1209;138185;-75
2021/09/14 15:26:58;;;;;;;5.40;4.90;;;;;;;19.22;59.63;100830.83;227782;1201;138073;-75
2021/09/14 15:32:00;;;;;;;5.30;4.70;;;;;;;19.23;61.01;100835.23;227367;1201;138496;-73
2021/09/14 15:37:02;;;;;;;5.40;4.90;;;;;;;19.16;61.60;100834.03;227058;1205;138523;-76
2021/09/14 15:42:10;;;;;;;5.80;5.30;;;;;;;18.99;62.97;100840.14;227707;1201;138625;-74
2021/09/14 15:47:24;;;;;;;6.90;6.30;;;;;;;18.83;63.45;100839.87;227701;1202;138991;-75
2021/09/14 15:52:25;;;;;;;7.20;6.40;;;;;;;18.77;63.25;100840.73;228060;1201;139375;-73
2021/09/14 15:57:27;;;;;;;8.90;8.20;;;;;;;18.66;62.52;100842.58;227843;1203;139089;-72
2021/09/14 16:02:29;;;;;;;8.70;7.10;;;;;;;18.59;62.09;100836.59;227077;1209;138987;-73
2021/09/14 16:07:30;;;;;;;7.30;6.70;;;;;;;18.49;62.68;100836.88;226884;1209;138170;-73
2021/09/14 16:12:32;;;;;;;7.30;6.60;;;;;;;18.38;63.80;100843.74;227153;1202;138311;-74
2021/09/14 16:17:33;;;;;;;7.90;7.20;;;;;;;18.33;64.03;100839.35;227835;1202;138225;-74
2021/09/14 16:22:35;;;;;;;8.70;7.70;;;;;;;18.18;65.95;100833.95;227462;1202;139413;-75
2021/09/14 16:27:38;;;;;;;8.60;7.70;;;;;;;18.02;67.36;100843.83;227743;1202;139069;-74
2021/09/14 16:32:40;;;;;;;14.90;10.60;;;;;;;17.93;68.57;100846.53;227901;1201;138906;-74
2021/09/14 16:37:43;;;;;;;9.30;8.30;;;;;;;17.86;68.93;100840.41;227058;1204;139615;-74
2021/09/14 16:42:45;;;;;;;10.30;8.00;;;;;;;17.83;69.33;100839.56;227472;1209;138507;-75
2021/09/14 16:47:46;;;;;;;9.90;8.90;;;;;;;17.70;69.99;100841.63;227064;1201;139500;-75
2021/09/14 16:52:49;;;;;;;11.30;8.70;;;;;;;17.51;71.03;100843.61;227738;1205;139846;-74
2021/09/14 16:57:52;;;;;;;10.20;9.10;;;;;;;17.36;71.36;100841.38;227644;1203;138393;-74
2021/09/14 17:02:53;;;;;;;11.80;10.20;;;;;;;17.24;71.43;100843.69;227219;1206;139244;-76
2021/09/14 17:07:55;;;;;;;12.60;8.50;;;;;;;17.09;72.15;100846.48;230514;1209;140357;-75
2021/09/14 17:12:57;;;;;;;9.30;8.30;;;;;;;17.09;72.39;100854.05;229108;1203;138623;-74
2021/09/14 17:17:59;;;;;;;11.60;9.50;;;;;;;16.97;72.96;100858.05;227355;1202;138555;-73
2021/09/14 17:23:02;;;;;;;11.90;10.60;;;;;;;16.82;73.36;100857.40;226820;1202;138646;-73
2021/09/14 17:28:04;;;;;;;12.00;10.20;;;;;;;16.73;73.80;100861.16;227300;1209;138962;-74
2021/09/14 17:33:06;;;;;;;12.80;10.10;;;;;;;16.66;73.93;100862.54;227841;1202;138732;-73
2021/09/14 17:38:08;;;;;;;13.70;8.50;;;;;;;16.61;73.96;100867.25;228695;1209;139464;-74
2021/09/14 17:43:10;;;;;;;12.20;8.60;;;;;;;16.61;73.51;100869.20;228337;1202;139056;-74
2021/09/14 17:48:12;;;;;;;12.10;8.60;;;;;;;16.48;74.24;100872.84;226926;1203;139242;-73
2021/09/14 17:53:15;;;;;;;9.40;8.20;;;;;;;16.53;73.96;100868.77;226914;1202;138678;-73
2021/09/14 17:58:17;;;;;;;10.10;8.70;;;;;;;16.51;73.77;100870.54;227661;1202;138858;-74
2021/09/14 18:03:19;;;;;;;9.50;8.50;;;;;;;16.41;74.01;100869.83;227268;1209;138690;-75
2021/09/14 18:08:22;;;;;;;9.70;8.30;;;;;;;16.35;74.01;100872.97;227816;1202;139219;-73
2021/09/14 18:13:24;;;;;;;9.80;8.90;;;;;;;16.25;74.43;100873.98;227383;1209;138898;-75
2021/09/14 18:18:26;;;;;;;10.60;8.50;;;;;;;16.25;73.77;100876.45;227890;1201;139103;-75
2021/09/14 18:23:28;;;;;;;12.50;9.70;;;;;;;15.95;75.38;100882.22;227887;1202;138874;-74
2021/09/14 18:28:29;;;;;;;11.20;10.00;;;;;;;15.77;76.04;100876.77;227808;1202;138408;-76
2021/09/14 18:33:31;;;;;;;12.50;9.50;;;;;;;15.74;76.56;100877.34;227819;1202;139328;-76
2021/09/14 18:38:33;;;;;;;15.40;10.80;;;;;;;15.66;76.64;100876.85;227927;1202;139471;-74
2021/09/14 18:43:35;;;;;;;14.00;12.50;;;;;;;15.58;76.92;100872.52;227849;1202;139342;-78
2021/09/14 18:48:37;;;;;;;15.70;14.20;;;;;;;15.57;76.56;100876.56;227906;1201;141739;-74
2021/09/14 18:53:39;;;;;;;18.20;15.70;;;;;;;15.50;76.58;100877.36;227928;1202;138758;-73
2021/09/14 18:58:41;;;;;;;17.70;16.00;;;;;;;15.41;77.15;100874.77;227902;1202;139581;-75
2021/09/14 19:03:42;;;;;;;20.30;18.40;;;;;;;15.32;77.76;100870.52;227020;1205;139258;-73
2021/09/14 19:08:44;;;;;;;23.70;21.30;;;;;;;15.23;77.99;100865.06;227816;1202;142729;-76
2021/09/14 19:13:46;;;;;;;26.60;23.00;;;;;;;15.26;77.62;100866.98;227795;1202;139189;-75
2021/09/14 19:18:48;;;;;;;26.30;23.70;;;;;;;15.21;77.46;100874.91;227887;1201;139007;-77
2021/09/14 19:23:50;;;;;;;28.00;25.20;;;;;;;15.27;77.49;100877.48;227790;1204;139290;-75
2021/09/14 19:28:52;;;;;;;22.80;20.40;;;;;;;15.22;78.05;100884.22;227705;1202;140933;-76
2021/09/14 19:33:53;;;;;;;20.90;18.90;;;;;;;15.25;78.24;100888.58;227811;1202;139920;-75
2021/09/14 19:38:55;;;;;;;20.50;18.40;;;;;;;15.28;77.01;100887.50;227817;1202;139059;-74
2021/09/14 19:43:56;;;;;;;19.30;17.50;;;;;;;15.22;76.59;100889.71;227945;1203;138989;-76
2021/09/14 19:48:58;;;;;;;19.20;17.30;;;;;;;14.91;77.83;100892.81;227816;1202;139394;-74
2021/09/14 19:54:00;;;;;;;18.10;16.30;;;;;;;14.76;78.63;100895.14;226916;1203;138896;-75
2021/09/14 19:59:01;;;;;;;17.20;15.60;;;;;;;14.62;79.08;100891.39;226836;1203;138505;-78
2021/09/14 20:04:03;;;;;;;16.20;14.60;;;;;;;14.60;79.32;100886.99;227721;1202;139344;-75
2021/09/14 20:09:05;;;;;;;15.70;13.60;;;;;;;14.58;79.36;100895.98;227175;1202;139279;-74
2021/09/14 20:14:06;;;;;;;14.90;13.40;;;;;;;14.53;79.02;100898.27;227661;1202;138456;-75
2021/09/14 20:19:08;;;;;;;14.30;12.80;;;;;;;14.45;79.51;100898.14;227010;1202;139378;-75
2021/09/14 20:24:10;;;;;;;13.80;12.50;;;;;;;14.51;79.36;100896.63;227645;1209;138496;-74
2021/09/14 20:29:11;;;;;;;12.70;11.40;;;;;;;14.46;79.40;100892.75;227521;1202;139579;-76
2021/09/14 20:34:13;;;;;;;14.40;12.90;;;;;;;14.43;79.26;100896.23;227738;1203;139601;-75
2021/09/14 20:39:15;;;;;;;14.40;13.10;;;;;;;14.34;78.86;100903.95;226968;1209;139219;-75
2021/09/14 20:44:17;;;;;;;14.50;13.10;;;;;;;14.22;78.80;100903.30;227469;1202;138790;-73
2021/09/14 20:49:19;;;;;;;13.50;12.30;;;;;;;14.08;79.32;100904.24;227781;1202;138604;-75
2021/09/14 20:54:21;;;;;;;14.00;12.40;;;;;;;13.96;79.59;100905.02;227903;1202;139232;-73
2021/09/14 20:59:23;;;;;;;14.60;13.10;;;;;;;13.97;79.59;100905.61;227013;1203;139176;-73
2021/09/14 21:04:24;;;;;;;14.20;12.80;;;;;;;14.05;78.81;100903.41;228487;1202;139334;-76
2021/09/14 21:09:26;;;;;;;14.30;12.90;;;;;;;14.01;78.86;100907.21;227901;1206;141583;-75
2021/09/14 21:14:27;;;;;;;12.60;11.30;;;;;;;14.01;78.09;100912.52;227929;1202;138383;-74
2021/09/14 21:19:29;;;;;;;12.40;11.20;;;;;;;13.85;78.93;100912.55;227882;1202;139267;-77
2021/09/14 21:24:31;;;;;;;13.10;11.70;;;;;;;13.82;78.94;100912.34;227731;1202;139815;-75
2021/09/14 21:29:33;;;;;;;13.00;11.90;;;;;;;13.81;79.13;100911.25;227645;1202;139743;-76
2021/09/14 21:34:34;;;;;;;12.70;11.60;;;;;;;13.80;79.05;100908.98;228003;1202;139074;-71
2021/09/14 21:39:36;;;;;;;12.70;11.50;;;;;;;13.71;79.28;100910.27;227133;1209;139177;-73
2021/09/14 21:44:37;;;;;;;12.90;11.70;;;;;;;13.70;79.16;100904.52;228003;1204;139569;-75
2021/09/14 21:49:39;;;;;;;12.90;11.50;;;;;;;13.69;79.20;100906.83;227005;1209;138873;-73
2021/09/14 21:54:41;;;;;;;11.80;10.60;;;;;;;13.63;78.63;100900.70;227070;1203;139206;-74
2021/09/14 21:59:43;;;;;;;11.90;10.70;;;;;;;13.57;78.70;100895.70;226879;1203;139793;-73
2021/09/14 22:04:45;;;;;;;11.80;10.70;;;;;;;13.53;79.06;100892.89;226816;1209;138907;-72
2021/09/14 22:09:47;;;;;;;11.60;10.50;;;;;;;13.52;78.95;100890.19;226808;1209;139693;-74
2021/09/14 22:14:48;;;;;;;11.80;10.60;;;;;;;13.54;78.99;100892.79;226806;1209;138815;-74
2021/09/14 22:19:50;;;;;;;11.80;10.60;;;;;;;13.69;77.93;100891.38;227186;1209;139209;-76
2021/09/14 22:24:51;;;;;;;13.10;11.80;;;;;;;13.63;78.06;100894.23;227234;1203;138994;-74
2021/09/14 22:29:54;;;;;;;12.50;11.10;;;;;;;13.54;78.46;100887.54;226839;1203;138653;-74
2021/09/14 22:34:55;;;;;;;12.50;11.30;;;;;;;13.52;78.93;100882.95;226898;1209;140012;-74
2021/09/14 22:39:57;;;;;;;11.40;10.50;;;;;;;13.49;79.14;100879.16;227165;1203;139432;-74
2021/09/14 22:44:58;;;;;;;13.00;11.50;;;;;;;13.64;78.18;100878.64;227205;1204;138645;-73
2021/09/14 22:50:00;;;;;;;11.80;10.70;;;;;;;13.63;77.55;100871.52;226864;1209;138914;-74
2021/09/14 22:55:03;;;;;;;11.50;9.80;;;;;;;13.57;77.80;100872.66;226978;1209;138882;-73
2021/09/14 23:00:06;;;;;;;10.20;9.10;;;;;;;13.57;77.58;100875.48;227461;1204;139967;-74
2021/09/14 23:05:08;;;;;;;10.60;9.60;;;;;;;13.54;78.04;100877.45;226937;1209;139273;-73
2021/09/14 23:10:10;;;;;;;12.00;9.90;;;;;;;13.48;78.40;100875.84;227861;1204;139036;-74
2021/09/14 23:15:12;;;;;;;10.40;9.40;;;;;;;13.46;78.52;100878.59;226858;1209;138320;-74
2021/09/14 23:20:14;;;;;;;10.40;9.50;;;;;;;13.37;78.65;100877.19;226708;1203;139066;-73
2021/09/14 23:25:15;;;;;;;9.90;9.00;;;;;;;13.28;79.26;100878.67;226759;1209;139360;-72
2021/09/14 23:30:17;;;;;;;11.20;9.50;;;;;;;13.33;78.68;100876.54;226774;1209;138974;-75
2021/09/14 23:35:19;;;;;;;11.50;9.30;;;;;;;13.24;79.39;100874.33;226842;1209;138771;-73
2021/09/14 23:40:21;;;;;;;10.10;9.10;;;;;;;13.20;79.33;100873.33;227179;1209;138379;-74
2021/09/14 23:45:23;;;;;;;10.20;9.20;;;;;;;13.13;79.90;100870.88;227383;1203;138939;-75
2021/09/14 23:50:25;;;;;;;10.30;9.00;;;;;;;13.10;80.25;100868.86;227439;1201;139176;-73